BAW2256 TKPK-TAPA
Flight info
| Callsign | BAW2256 |
|---|---|
| Flight time | 0h 16m |
| Altitude | 17000 |
| Route | DCT |
| Aircraft | A332/H-SDE3GHIJ2J3J5M1RVWXY/LB2D1 |
Departure
| Time | 2026-04-20 13:15 |
|---|---|
| Airport | Robert L. Bradshaw International Airport (TKPK) |
Arrival
| Time | 2026-04-20 13:31 |
|---|---|
| Airport | V. C. Bird International Airport (TAPA) |
| Time | Latitude | Longitude | Altitude | Speed | Heading |
|---|---|---|---|---|---|
| 2026-04-20 13:09 | 17.30895 | -62.71822 | 173 ft | 0 kts | 148° |
| 2026-04-20 13:11 | 17.30897 | -62.71823 | 173 ft | 3 kts | 148° |
| 2026-04-20 13:12 | 17.30913 | -62.71834 | 173 ft | 3 kts | 161° |
| 2026-04-20 13:12 | 17.30933 | -62.71835 | 173 ft | 3 kts | 216° |
| 2026-04-20 13:12 | 17.30937 | -62.71833 | 173 ft | 0 kts | 229° |
| 2026-04-20 13:12 | 17.30936 | -62.71836 | 173 ft | 1 kts | 237° |
| 2026-04-20 13:13 | 17.30894 | -62.71907 | 174 ft | 26 kts | 238° |
| 2026-04-20 13:13 | 17.30780 | -62.72103 | 174 ft | 35 kts | 237° |
| 2026-04-20 13:13 | 17.30705 | -62.72329 | 175 ft | 34 kts | 263° |
| 2026-04-20 13:13 | 17.30660 | -62.72574 | 176 ft | 35 kts | 239° |
| 2026-04-20 13:14 | 17.30537 | -62.72718 | 177 ft | 15 kts | 268° |
| 2026-04-20 13:14 | 17.30575 | -62.72735 | 177 ft | 0 kts | 51° |
| 2026-04-20 13:14 | 17.30648 | -62.72629 | 176 ft | 65 kts | 56° |
| 2026-04-20 13:14 | 17.31082 | -62.71900 | 422 ft | 155 kts | 65° |
| 2026-04-20 13:15 | 17.31200 | -62.70715 | 1864 ft | 182 kts | 99° |
| 2026-04-20 13:15 | 17.30706 | -62.69383 | 3488 ft | 209 kts | 110° |
| 2026-04-20 13:15 | 17.30191 | -62.67857 | 5047 ft | 233 kts | 110° |
| 2026-04-20 13:15 | 17.29570 | -62.66229 | 6634 ft | 247 kts | 109° |
| 2026-04-20 13:16 | 17.28925 | -62.64517 | 8166 ft | 261 kts | 109° |
| 2026-04-20 13:16 | 17.28230 | -62.62654 | 9221 ft | 292 kts | 109° |
| 2026-04-20 13:16 | 17.27475 | -62.60621 | 9768 ft | 295 kts | 109° |
| 2026-04-20 13:16 | 17.26743 | -62.58668 | 9953 ft | 287 kts | 109° |
| 2026-04-20 13:17 | 17.26019 | -62.56728 | 9964 ft | 285 kts | 109° |
| 2026-04-20 13:17 | 17.25296 | -62.54786 | 9966 ft | 286 kts | 108° |
| 2026-04-20 13:17 | 17.24575 | -62.52845 | 9966 ft | 286 kts | 109° |
| 2026-04-20 13:17 | 17.23854 | -62.50908 | 9966 ft | 284 kts | 108° |
| 2026-04-20 13:18 | 17.23147 | -62.49005 | 9967 ft | 284 kts | 109° |
| 2026-04-20 13:18 | 17.22431 | -62.47079 | 9967 ft | 284 kts | 109° |
| 2026-04-20 13:18 | 17.21708 | -62.45134 | 9970 ft | 285 kts | 109° |
| 2026-04-20 13:18 | 17.20987 | -62.43197 | 9972 ft | 285 kts | 109° |
| 2026-04-20 13:19 | 17.20267 | -62.41261 | 9969 ft | 285 kts | 108° |
| 2026-04-20 13:19 | 17.19557 | -62.39357 | 9713 ft | 283 kts | 108° |
| 2026-04-20 13:19 | 17.18842 | -62.37436 | 9219 ft | 282 kts | 108° |
| 2026-04-20 13:19 | 17.18137 | -62.35545 | 8846 ft | 276 kts | 109° |
| 2026-04-20 13:20 | 17.17443 | -62.33683 | 8497 ft | 273 kts | 109° |
| 2026-04-20 13:20 | 17.16755 | -62.31839 | 8151 ft | 269 kts | 109° |
| 2026-04-20 13:20 | 17.16080 | -62.30028 | 7804 ft | 266 kts | 108° |
| 2026-04-20 13:20 | 17.15421 | -62.28260 | 7467 ft | 263 kts | 109° |
| 2026-04-20 13:21 | 17.14760 | -62.26488 | 7132 ft | 260 kts | 109° |
| 2026-04-20 13:21 | 17.14105 | -62.24733 | 6792 ft | 258 kts | 109° |
| 2026-04-20 13:21 | 17.13452 | -62.22983 | 6442 ft | 256 kts | 109° |
| 2026-04-20 13:21 | 17.12805 | -62.21249 | 6088 ft | 254 kts | 109° |
| 2026-04-20 13:22 | 17.12174 | -62.19561 | 5761 ft | 251 kts | 109° |
| 2026-04-20 13:22 | 17.11542 | -62.17870 | 5421 ft | 248 kts | 109° |
| 2026-04-20 13:22 | 17.10915 | -62.16191 | 5096 ft | 246 kts | 109° |
| 2026-04-20 13:22 | 17.10295 | -62.14532 | 4760 ft | 244 kts | 109° |
| 2026-04-20 13:23 | 17.09678 | -62.12882 | 4419 ft | 242 kts | 109° |
| 2026-04-20 13:23 | 17.09067 | -62.11248 | 4083 ft | 240 kts | 109° |
| 2026-04-20 13:23 | 17.08663 | -62.10169 | 3871 ft | 238 kts | 109° |
| 2026-04-20 13:23 | 17.08061 | -62.08562 | 3544 ft | 236 kts | 109° |
| 2026-04-20 13:24 | 17.07474 | -62.06992 | 3230 ft | 233 kts | 110° |
| 2026-04-20 13:24 | 17.06884 | -62.05417 | 2907 ft | 232 kts | 110° |
| 2026-04-20 13:24 | 17.06294 | -62.03842 | 2612 ft | 234 kts | 110° |
| 2026-04-20 13:24 | 17.05687 | -62.02217 | 2451 ft | 243 kts | 110° |
| 2026-04-20 13:25 | 17.05067 | -62.00561 | 2472 ft | 245 kts | 110° |
| 2026-04-20 13:25 | 17.04466 | -61.98964 | 2475 ft | 226 kts | 109° |
| 2026-04-20 13:25 | 17.03975 | -61.97473 | 2403 ft | 212 kts | 101° |
| 2026-04-20 13:25 | 17.03970 | -61.95978 | 2290 ft | 202 kts | 76° |
| 2026-04-20 13:26 | 17.04521 | -61.94653 | 2211 ft | 194 kts | 62° |
| 2026-04-20 13:26 | 17.05196 | -61.93497 | 2159 ft | 181 kts | 61° |
| 2026-04-20 13:26 | 17.05848 | -61.92430 | 2064 ft | 166 kts | 60° |
| 2026-04-20 13:26 | 17.06443 | -61.91453 | 1987 ft | 152 kts | 60° |
| 2026-04-20 13:27 | 17.06968 | -61.90582 | 1972 ft | 128 kts | 61° |
| 2026-04-20 13:27 | 17.07397 | -61.89872 | 1967 ft | 105 kts | 62° |
| 2026-04-20 13:27 | 17.07766 | -61.89254 | 1972 ft | 99 kts | 63° |
| 2026-04-20 13:27 | 17.08132 | -61.88632 | 1856 ft | 102 kts | 62° |
| 2026-04-20 13:28 | 17.08515 | -61.87977 | 1596 ft | 107 kts | 63° |
| 2026-04-20 13:28 | 17.08898 | -61.87331 | 1375 ft | 104 kts | 63° |
| 2026-04-20 13:28 | 17.09280 | -61.86687 | 1085 ft | 103 kts | 61° |
| 2026-04-20 13:28 | 17.09664 | -61.86053 | 1030 ft | 103 kts | 62° |
| 2026-04-20 13:29 | 17.10029 | -61.85415 | 929 ft | 101 kts | 65° |
| 2026-04-20 13:29 | 17.10383 | -61.84788 | 872 ft | 99 kts | 66° |
| 2026-04-20 13:29 | 17.10742 | -61.84173 | 830 ft | 103 kts | 62° |
| 2026-04-20 13:29 | 17.11122 | -61.83526 | 765 ft | 101 kts | 61° |
| 2026-04-20 13:30 | 17.11501 | -61.82941 | 579 ft | 91 kts | 59° |
| 2026-04-20 13:30 | 17.11837 | -61.82393 | 383 ft | 109 kts | 62° |
| 2026-04-20 13:30 | 17.12290 | -61.81603 | 362 ft | 125 kts | 63° |
| 2026-04-20 13:30 | 17.12716 | -61.80884 | 199 ft | 108 kts | 60° |
| 2026-04-20 13:31 | 17.13075 | -61.80281 | 67 ft | 62 kts | 59° |
| 2026-04-20 13:31 | 17.13231 | -61.80015 | 58 ft | 13 kts | 55° |
| 2026-04-20 13:31 | 17.13338 | -61.79874 | 55 ft | 32 kts | 43° |
| 2026-04-20 13:31 | 17.13512 | -61.79731 | 63 ft | 33 kts | 49° |
| 2026-04-20 13:32 | 17.13644 | -61.79533 | 57 ft | 35 kts | 57° |
| 2026-04-20 13:32 | 17.13793 | -61.79345 | 52 ft | 31 kts | 13° |
| 2026-04-20 13:32 | 17.13856 | -61.79359 | 57 ft | 0 kts | 330° |